Terminal Aerodrome Forecast
Issued by NWS Twin Cities, MN

Home | Current Version | Previous Version | Graphics & Text | Print | Product List | Glossary On
Versions: 1 2 3 4 5 6 7 8 9 10 11 12 13 14 15 16 17 18 19 20 21 22 23 24 25 26 27 28 29 30 31 32
000
FTUS43 KMPX 310907 AAB
TAFMSP
TAF AMD
KMSP 310907Z 3109/0112 25004KT P6SM BKN020
     FM311100 35006KT P6SM BKN018 OVC025
      TEMPO 3111/3115 OVC015
     FM311900 02010KT P6SM BKN020
     FM312200 03012KT P6SM SCT020
     FM010000 03014G18KT P6SM SCT020 OVC100
     FM010900 04014G20KT P6SM -SN SCT025 BKN040=

USA.gov is the U.S. government's official web portal to all federal, state and local government web resources and services.